createdAt,value
2019-01-26T00:00:59.119Z,0.59
2019-01-26T00:04:14.618Z,0.57
2019-01-26T00:07:29.867Z,0.46
2019-01-26T00:10:46.129Z,0.42
2019-01-26T00:14:01.787Z,0.49
2019-01-26T00:17:17.290Z,0.49
2019-01-26T00:20:36.450Z,0.47
2019-01-26T00:23:50.822Z,0.49
2019-01-26T00:27:06.282Z,0.50
2019-01-26T00:30:21.823Z,0.43
2019-01-26T00:33:36.992Z,0.45
2019-01-26T00:37:04.721Z,0.49
2019-01-26T00:40:20.266Z,0.49
2019-01-26T00:43:35.422Z,0.49
2019-01-26T00:46:50.979Z,0.55
2019-01-26T00:50:06.653Z,0.65
2019-01-26T00:53:21.793Z,0.54
2019-01-26T00:56:37.059Z,0.44
2019-01-26T00:59:52.496Z,0.38
2019-01-26T01:03:07.741Z,0.41
2019-01-26T01:06:25.989Z,0.47
2019-01-26T01:09:40.434Z,0.51
2019-01-26T01:12:55.748Z,0.43
2019-01-26T01:16:11.194Z,0.46
2019-01-26T01:19:26.351Z,0.49
2019-01-26T01:22:41.508Z,0.53
2019-01-26T01:25:56.642Z,0.60
2019-01-26T01:29:12.296Z,0.67
2019-01-26T01:32:27.759Z,0.65
2019-01-26T01:35:43.215Z,0.67
2019-01-26T01:38:58.476Z,0.68
2019-01-26T01:42:13.919Z,0.65
2019-01-26T01:45:29.154Z,0.74
2019-01-26T01:48:45.092Z,0.72
2019-01-26T01:52:00.378Z,0.70
2019-01-26T01:55:15.942Z,0.77
2019-01-26T01:58:31.398Z,0.79
2019-01-26T02:01:46.853Z,0.88
2019-01-26T02:09:17.519Z,0.70
2019-01-26T02:12:32.810Z,0.76
2019-01-26T02:15:47.864Z,0.90
2019-01-26T02:19:03.096Z,0.92
2019-01-26T02:22:18.207Z,0.82
2019-01-26T02:25:33.732Z,0.71
2019-01-26T02:28:49.070Z,0.74
2019-01-26T02:32:04.420Z,0.80
2019-01-26T02:35:20.005Z,0.89
2019-01-26T02:38:35.410Z,0.87
2019-01-26T02:41:50.832Z,0.86
2019-01-26T02:45:06.670Z,0.91
2019-01-26T02:48:21.774Z,0.99
2019-01-26T02:51:37.233Z,1.08
2019-01-26T02:54:52.372Z,0.99
2019-01-26T02:58:07.510Z,0.98
2019-01-26T03:01:22.836Z,1.03
2019-01-26T03:04:38.062Z,1.09
2019-01-26T03:07:53.811Z,1.08
2019-01-26T03:11:08.949Z,1.10
2019-01-26T03:14:24.461Z,1.12
2019-01-26T03:17:39.518Z,1.08
2019-01-26T03:20:54.898Z,1.04
2019-01-26T03:24:10.320Z,1.10
2019-01-26T03:27:25.906Z,1.15
2019-01-26T03:30:41.111Z,1.23
2019-01-26T03:33:56.431Z,1.12
2019-01-26T03:37:11.724Z,1.23
2019-01-26T03:40:26.963Z,1.22
2019-01-26T03:43:42.108Z,1.15
2019-01-26T03:46:57.276Z,1.23
2019-01-26T03:50:12.246Z,1.18
2019-01-26T03:53:27.659Z,1.10
2019-01-26T03:56:42.956Z,1.07
2019-01-26T03:59:58.123Z,1.13
2019-01-26T04:03:13.563Z,1.13
2019-01-26T04:06:28.973Z,1.15
2019-01-26T04:09:44.468Z,1.13
2019-01-26T04:12:59.613Z,1.19
2019-01-26T04:16:15.069Z,1.11
2019-01-26T04:19:30.213Z,1.08
2019-01-26T04:22:45.795Z,1.19
2019-01-26T04:26:00.872Z,1.21
2019-01-26T04:29:16.117Z,1.20
2019-01-26T04:32:31.185Z,1.21
2019-01-26T04:35:46.463Z,1.25
2019-01-26T04:39:01.843Z,1.26
2019-01-26T04:42:17.296Z,1.32
2019-01-26T04:45:32.460Z,1.30
2019-01-26T04:48:47.625Z,1.34
2019-01-26T04:52:03.090Z,1.32
2019-01-26T04:55:18.299Z,1.30
2019-01-26T04:58:33.676Z,1.31
2019-01-26T05:01:48.911Z,1.35
2019-01-26T05:05:04.619Z,1.42
2019-01-26T05:08:19.918Z,1.36
2019-01-26T05:11:35.755Z,1.33
2019-01-26T05:14:50.961Z,1.39
2019-01-26T05:18:06.437Z,1.39
2019-01-26T05:21:21.574Z,1.44
2019-01-26T05:24:37.068Z,1.41
2019-01-26T05:27:52.337Z,1.40
2019-01-26T05:31:07.406Z,1.41
2019-01-26T05:34:22.742Z,1.43
2019-01-26T05:37:38.160Z,1.52
2019-01-26T05:40:53.457Z,1.50
2019-01-26T05:44:08.612Z,1.58
2019-01-26T05:47:24.101Z,1.56
2019-01-26T05:50:39.184Z,1.46
2019-01-26T05:53:54.415Z,1.58
2019-01-26T05:57:09.707Z,1.46
2019-01-26T06:00:30.749Z,1.49
2019-01-26T06:03:45.910Z,1.55
2019-01-26T06:07:01.099Z,1.53
2019-01-26T06:10:16.521Z,1.52
2019-01-26T06:13:31.762Z,1.52
2019-01-26T06:16:47.120Z,1.56
2019-01-26T06:20:02.340Z,1.51
2019-01-26T06:23:17.524Z,1.57
2019-01-26T06:26:33.188Z,1.52
2019-01-26T06:29:48.395Z,1.58
2019-01-26T06:33:04.488Z,1.59
2019-01-26T06:36:19.891Z,1.58
2019-01-26T06:39:35.295Z,1.56
2019-01-26T06:42:50.547Z,1.58
2019-01-26T06:46:05.968Z,1.57
2019-01-26T06:49:21.179Z,1.61
2019-01-26T06:52:36.528Z,1.62
2019-01-26T06:55:51.683Z,1.62
2019-01-26T06:59:07.107Z,1.62
2019-01-26T07:02:22.515Z,1.63
2019-01-26T07:05:45.203Z,1.65
2019-01-26T07:09:00.260Z,1.66
2019-01-26T07:12:15.511Z,1.71
2019-01-26T07:15:31.115Z,1.64
2019-01-26T07:18:46.260Z,1.67
2019-01-26T07:22:01.516Z,1.69
2019-01-26T07:25:16.866Z,1.73
2019-01-26T07:28:32.101Z,1.76
2019-01-26T07:31:47.267Z,1.81
2019-01-26T07:35:02.523Z,1.85
2019-01-26T07:38:17.970Z,1.88
2019-01-26T07:41:34.119Z,2.03
2019-01-26T07:44:49.582Z,2.14
2019-01-26T07:48:05.977Z,2.13
2019-01-26T07:51:21.122Z,2.17
2019-01-26T07:54:36.395Z,2.26
2019-01-26T07:57:51.582Z,2.24
2019-01-26T08:01:06.965Z,2.25
2019-01-26T08:04:22.288Z,2.29
2019-01-26T08:07:37.700Z,2.29
2019-01-26T08:10:53.160Z,2.28
2019-01-26T08:14:08.805Z,2.30
2019-01-26T08:17:24.316Z,2.43
2019-01-26T08:20:39.600Z,2.59
2019-01-26T08:23:55.056Z,2.71
2019-01-26T08:27:10.310Z,2.79
2019-01-26T08:30:25.732Z,2.86
2019-01-26T08:33:40.919Z,3.00
2019-01-26T08:36:56.637Z,2.98
2019-01-26T08:40:12.872Z,2.95
2019-01-26T08:43:28.297Z,2.93
2019-01-26T08:46:43.670Z,2.93
2019-01-26T08:49:59.080Z,2.78
2019-01-26T08:53:14.536Z,2.73
2019-01-26T08:56:29.934Z,2.86
2019-01-26T08:59:45.322Z,2.90
2019-01-26T09:03:21.343Z,3.12
2019-01-26T09:06:40.560Z,3.19
2019-01-26T09:09:55.788Z,3.18
2019-01-26T09:13:11.054Z,3.21
2019-01-26T09:16:26.446Z,3.38
2019-01-26T09:19:41.844Z,3.56
2019-01-26T09:22:57.337Z,3.52
2019-01-26T09:26:12.726Z,3.57
2019-01-26T09:29:27.950Z,3.65
2019-01-26T09:32:43.362Z,3.68
2019-01-26T09:35:58.699Z,3.77
2019-01-26T09:39:13.780Z,3.99
2019-01-26T09:42:29.044Z,4.04
2019-01-26T09:45:44.427Z,4.02
2019-01-26T09:49:00.047Z,4.09
2019-01-26T09:52:15.269Z,4.11
2019-01-26T09:55:30.673Z,4.09
2019-01-26T09:58:46.224Z,4.41
2019-01-26T10:02:01.487Z,4.80
2019-01-26T10:05:16.902Z,4.91
2019-01-26T10:08:32.061Z,5.21
2019-01-26T10:11:47.376Z,5.36
2019-01-26T10:15:02.766Z,5.48
2019-01-26T10:18:17.921Z,5.65
2019-01-26T10:21:33.357Z,5.80
2019-01-26T10:24:48.847Z,5.66
2019-01-26T10:28:03.910Z,5.53
2019-01-26T10:31:19.878Z,5.57
2019-01-26T10:34:35.307Z,5.45
2019-01-26T10:37:50.400Z,5.78
2019-01-26T10:41:32.509Z,5.86
2019-01-26T10:44:47.611Z,5.70
2019-01-26T10:48:04.548Z,5.69
2019-01-26T10:51:20.293Z,5.81
2019-01-26T10:54:35.403Z,5.96
2019-01-26T10:57:50.865Z,5.92
2019-01-26T11:01:06.143Z,5.94
2019-01-26T11:04:21.453Z,6.08
2019-01-26T11:07:36.883Z,5.76
2019-01-26T11:10:51.976Z,5.83
2019-01-26T11:14:07.440Z,5.95
2019-01-26T11:17:23.201Z,6.35
2019-01-26T11:20:38.412Z,6.25
2019-01-26T11:23:53.912Z,6.29
2019-01-26T11:27:09.197Z,5.99
2019-01-26T11:30:26.017Z,5.42
2019-01-26T11:33:41.194Z,5.15
2019-01-26T11:36:56.339Z,4.94
2019-01-26T11:40:17.043Z,4.76
2019-01-26T11:43:31.229Z,4.82
2019-01-26T11:46:50.254Z,5.03
2019-01-26T11:50:07.222Z,5.15
2019-01-26T11:53:22.668Z,5.25
2019-01-26T11:56:56.815Z,5.02
2019-01-26T12:00:34.621Z,5.16
2019-01-26T12:03:59.333Z,5.13
2019-01-26T12:07:21.485Z,5.08
2019-01-26T12:10:36.837Z,5.14
2019-01-26T12:13:52.003Z,5.05
2019-01-26T12:17:07.353Z,5.23
2019-01-26T12:20:21.935Z,5.58
2019-01-26T12:23:37.391Z,5.68
2019-01-26T12:26:52.771Z,5.75
2019-01-26T12:30:08.453Z,5.51
2019-01-26T12:33:23.542Z,5.03
2019-01-26T12:36:38.982Z,5.13
2019-01-26T12:39:54.140Z,5.16
2019-01-26T12:43:09.541Z,5.12
2019-01-26T12:46:24.987Z,4.76
2019-01-26T12:49:40.282Z,5.01
2019-01-26T12:52:56.047Z,5.28
2019-01-26T12:56:11.432Z,5.74
2019-01-26T12:59:26.742Z,5.76
2019-01-26T13:02:41.836Z,5.36
2019-01-26T13:05:56.959Z,5.64
2019-01-26T13:09:12.583Z,5.76
2019-01-26T13:12:27.908Z,5.45
2019-01-26T13:15:43.163Z,5.02
2019-01-26T13:18:58.828Z,4.81
2019-01-26T13:22:14.048Z,4.94
2019-01-26T13:25:30.129Z,5.36
2019-01-26T13:28:45.204Z,5.39
2019-01-26T13:32:00.451Z,5.52
2019-01-26T13:35:16.248Z,5.35
2019-01-26T13:38:31.529Z,5.36
2019-01-26T13:41:47.139Z,5.12
2019-01-26T13:45:02.356Z,4.75
2019-01-26T13:48:17.482Z,4.41
2019-01-26T13:51:34.050Z,4.37
2019-01-26T13:54:49.310Z,4.59
2019-01-26T13:58:04.587Z,4.72
2019-01-26T14:01:20.621Z,4.82
2019-01-26T14:04:35.983Z,4.82
2019-01-26T14:07:51.368Z,5.04
2019-01-26T14:11:06.851Z,4.79
2019-01-26T14:14:22.532Z,4.55
2019-01-26T14:17:37.659Z,4.60
2019-01-26T14:20:53.162Z,4.50
2019-01-26T14:24:08.996Z,4.61
2019-01-26T14:27:24.283Z,4.58
2019-01-26T14:30:42.340Z,4.64
2019-01-26T14:33:57.875Z,4.56
2019-01-26T14:37:13.504Z,4.75
2019-01-26T14:40:28.745Z,4.75
2019-01-26T14:43:43.946Z,4.76
2019-01-26T14:46:59.249Z,4.75
2019-01-26T14:50:14.615Z,4.57
2019-01-26T14:53:29.951Z,4.40
2019-01-26T14:56:45.458Z,4.00
2019-01-26T15:00:00.848Z,3.94
2019-01-26T15:03:16.397Z,3.81
2019-01-26T15:06:31.585Z,3.86
2019-01-26T15:09:46.903Z,3.81
2019-01-26T15:13:02.449Z,3.92
2019-01-26T15:16:17.972Z,3.84
2019-01-26T15:19:33.707Z,3.89
2019-01-26T15:22:49.223Z,3.90
2019-01-26T15:26:05.170Z,3.78
2019-01-26T15:29:22.097Z,3.75
2019-01-26T15:32:37.359Z,3.74
2019-01-26T15:35:52.559Z,3.65
2019-01-26T15:39:07.880Z,3.67
2019-01-26T15:42:23.773Z,3.67
2019-01-26T15:45:41.607Z,3.66
2019-01-26T15:48:57.076Z,3.73
2019-01-26T15:52:12.244Z,3.83
2019-01-26T15:55:27.075Z,3.87
2019-01-26T15:58:43.095Z,3.87
2019-01-26T16:01:58.201Z,3.90
2019-01-26T16:05:13.807Z,3.86
2019-01-26T16:08:29.076Z,3.86
2019-01-26T16:11:44.448Z,3.87
2019-01-26T16:14:59.630Z,3.89
2019-01-26T16:18:15.811Z,3.86
2019-01-26T16:21:30.985Z,3.92
2019-01-26T16:24:46.946Z,3.96
2019-01-26T16:28:02.340Z,3.89
2019-01-26T16:31:17.608Z,3.92
2019-01-26T16:34:32.746Z,3.94
2019-01-26T16:37:48.021Z,3.97
2019-01-26T16:41:03.403Z,3.97
2019-01-26T16:47:48.766Z,3.94
2019-01-26T16:51:04.097Z,3.98
2019-01-26T16:54:19.757Z,4.00
2019-01-26T16:57:35.406Z,3.99
2019-01-26T17:00:52.903Z,3.95
2019-01-26T17:04:08.166Z,3.99
2019-01-26T17:07:23.609Z,4.05
2019-01-26T17:10:38.767Z,4.00
2019-01-26T17:13:53.912Z,4.09
2019-01-26T17:17:08.984Z,4.08
2019-01-26T17:20:24.551Z,4.09
2019-01-26T17:23:41.225Z,4.16
2019-01-26T17:26:56.875Z,4.17
2019-01-26T17:30:16.036Z,4.16
2019-01-26T17:33:31.168Z,4.14
2019-01-26T17:36:46.512Z,4.15
2019-01-26T17:40:01.971Z,4.21
2019-01-26T17:43:17.324Z,4.20
2019-01-26T17:46:33.197Z,4.24
2019-01-26T17:49:48.538Z,4.27
2019-01-26T17:53:05.725Z,4.37
2019-01-26T17:56:21.158Z,4.36
2019-01-26T17:59:36.650Z,4.41
2019-01-26T18:02:51.901Z,4.32
2019-01-26T18:06:07.339Z,4.35
2019-01-26T18:09:22.412Z,4.34
2019-01-26T18:12:37.887Z,4.30
2019-01-26T18:15:53.006Z,4.31
2019-01-26T18:19:08.663Z,4.38
2019-01-26T18:22:23.912Z,4.41
2019-01-26T18:25:39.986Z,4.51
2019-01-26T18:28:55.435Z,4.45
2019-01-26T18:32:11.367Z,4.56
2019-01-26T18:35:27.360Z,4.41
2019-01-26T18:38:42.628Z,4.42
2019-01-26T18:41:57.947Z,4.39
2019-01-26T18:45:13.889Z,4.37
2019-01-26T18:48:29.287Z,4.36
2019-01-26T18:51:44.752Z,4.27
2019-01-26T18:55:00.415Z,4.34
2019-01-26T18:58:15.983Z,4.42
2019-01-26T19:01:31.532Z,4.42
2019-01-26T19:04:51.165Z,4.39
2019-01-26T19:08:08.646Z,4.36
2019-01-26T19:11:24.134Z,4.43
2019-01-26T19:14:39.592Z,4.42
2019-01-26T19:17:55.069Z,4.39
2019-01-26T19:21:10.703Z,4.28
2019-01-26T19:24:25.959Z,4.23
2019-01-26T19:27:41.285Z,4.31
2019-01-26T19:30:56.562Z,4.26
2019-01-26T19:34:11.820Z,4.32
2019-01-26T19:37:27.163Z,4.22
2019-01-26T19:40:42.321Z,4.36
2019-01-26T19:43:57.668Z,4.41
2019-01-26T19:47:13.222Z,4.39
2019-01-26T19:50:28.683Z,4.30
2019-01-26T19:53:44.340Z,4.25
2019-01-26T19:56:59.592Z,4.20
2019-01-26T20:00:14.865Z,4.18
2019-01-26T20:03:30.318Z,4.31
2019-01-26T20:06:45.763Z,4.37
2019-01-26T20:10:01.499Z,4.39
2019-01-26T20:13:16.765Z,4.36
2019-01-26T20:16:36.377Z,4.36
2019-01-26T20:19:49.681Z,4.32
2019-01-26T20:23:04.939Z,4.29
2019-01-26T20:26:20.430Z,4.38
2019-01-26T20:29:35.945Z,4.27
2019-01-26T20:32:51.647Z,4.29
2019-01-26T20:36:07.104Z,4.36
2019-01-26T20:39:22.509Z,4.34
2019-01-26T20:42:37.902Z,4.34
2019-01-26T20:45:53.387Z,4.42
2019-01-26T20:49:08.710Z,4.35
2019-01-26T20:52:24.266Z,4.34
2019-01-26T20:55:39.630Z,4.40
2019-01-26T20:58:54.978Z,4.49
2019-01-26T21:02:09.900Z,4.48
2019-01-26T21:05:25.069Z,4.65
2019-01-26T21:08:40.591Z,4.55
2019-01-26T21:11:56.096Z,4.47
2019-01-26T21:15:11.736Z,4.48
2019-01-26T21:18:26.998Z,4.49
2019-01-26T21:21:42.732Z,4.45
2019-01-26T21:24:59.800Z,4.43
2019-01-26T21:28:14.971Z,4.43
2019-01-26T21:31:30.355Z,4.54
2019-01-26T21:34:45.777Z,4.52
2019-01-26T21:38:01.229Z,4.53
2019-01-26T21:41:16.424Z,4.53
2019-01-26T21:44:31.975Z,4.55
2019-01-26T21:47:47.467Z,4.53
2019-01-26T21:51:03.090Z,4.53
2019-01-26T21:54:18.306Z,4.54
2019-01-26T21:57:33.695Z,4.58
2019-01-26T22:00:49.026Z,4.66
2019-01-26T22:04:05.100Z,4.66
2019-01-26T22:07:21.522Z,4.74
2019-01-26T22:10:37.156Z,4.63
2019-01-26T22:13:52.606Z,4.66
2019-01-26T22:17:07.800Z,4.61
2019-01-26T22:20:23.515Z,4.56
2019-01-26T22:23:40.300Z,4.61
2019-01-26T22:26:55.860Z,4.65
2019-01-26T22:30:14.727Z,4.67
2019-01-26T22:33:30.046Z,4.69
2019-01-26T22:36:45.704Z,4.64
2019-01-26T22:40:01.164Z,4.70
2019-01-26T22:43:16.723Z,4.69
2019-01-26T22:46:31.859Z,4.77
2019-01-26T22:49:47.136Z,4.89
2019-01-26T22:53:02.902Z,4.89
2019-01-26T22:56:18.445Z,4.82
2019-01-26T22:59:33.890Z,4.79
2019-01-26T23:06:31.909Z,4.81
2019-01-26T23:10:02.672Z,4.80
2019-01-26T23:13:24.778Z,4.81
2019-01-26T23:17:23.039Z,4.81
2019-01-26T23:21:03.535Z,4.81
2019-01-26T23:24:52.864Z,4.83
2019-01-26T23:28:14.764Z,4.90
2019-01-26T23:31:30.126Z,4.87
2019-01-26T23:34:45.615Z,4.87
2019-01-26T23:38:01.041Z,4.88
2019-01-26T23:41:16.758Z,4.91
2019-01-26T23:44:32.416Z,4.89
2019-01-26T23:47:47.564Z,4.91
2019-01-26T23:51:02.538Z,4.94
2019-01-26T23:54:17.912Z,5.02
2019-01-26T23:57:33.162Z,4.98
